»·PEaware :: N49872 KRNM-KSAN

N49872 :: KRNM-KSAN

FLIGHT INFORMATION

Flight Status: Arrived
Operator: Privately registered:
United States
More flights under this callsign
Pilot: Jeff K. (12978)
Aircraft: BEECH AIRCRAFT BARON
(BE58)
More flights by this aircraft type
Origin: KRNM Ramona
United States
Destination: KSAN San Diego Intl-Lindbergh
United States
More flights between these airports :: More routes between these airports
Route: +ROBNN V208 OCN V23 MZB V66 RYAHH
File this flight plan on PilotEdge
Remarks:
Altitude:
(Current/Filed)
5,000ft
Speed:
(Current/Filed)
160kts
Departed: 12-Sep-17 09:04 PM
Arrived: 12-Sep-17 09:44 PM
Distance/Time
Traveled:
23nm/0:40
Distance/Time
To Go:
Arrived

Flight Plot

Page will automatically refresh every two minutes.


Map Options




Map Legend


Flown Route
Filed Route
Departure Airport
Arrival Airport
Navaid (VOR, NDB)
Fix

Horizontal Profiles

Position Reports

Time Latitude Longitude Heading Altitude Ground
Speed
12-Sep-17 20:32 33.037218 -116.910147 188 1389ft 0kts
12-Sep-17 20:33 33.037218 -116.910147 188 1389ft 0kts
12-Sep-17 20:34 33.037218 -116.910147 188 1389ft 0kts
12-Sep-17 20:35 33.037218 -116.910147 188 1389ft 0kts
12-Sep-17 20:36 33.037218 -116.910147 188 1389ft 0kts
12-Sep-17 20:37 33.037218 -116.910147 188 1389ft 0kts
12-Sep-17 20:38 33.037218 -116.910147 188 1389ft 0kts
12-Sep-17 20:39 33.037218 -116.910147 188 1389ft 0kts
12-Sep-17 20:40 33.037218 -116.910147 188 1389ft 0kts
12-Sep-17 20:41 33.037218 -116.910147 188 1389ft 0kts
12-Sep-17 20:42 33.037218 -116.910147 188 1389ft 0kts
12-Sep-17 20:43 33.037218 -116.910147 188 1389ft 0kts
12-Sep-17 20:44 33.037218 -116.910147 188 1389ft 0kts
12-Sep-17 20:45 33.037218 -116.910147 188 1389ft 0kts
12-Sep-17 20:46 33.037218 -116.910147 188 1389ft 0kts
12-Sep-17 20:47 33.037218 -116.910147 188 1389ft 0kts
12-Sep-17 20:48 33.037218 -116.910147 188 1389ft 0kts
12-Sep-17 20:49 33.037218 -116.910147 188 1389ft 0kts
12-Sep-17 20:50 33.037218 -116.910147 188 1389ft 0kts
12-Sep-17 20:51 33.037218 -116.910147 188 1389ft 0kts
12-Sep-17 20:52 33.037218 -116.910147 188 1389ft 0kts
12-Sep-17 20:53 33.037218 -116.910147 188 1389ft 0kts
12-Sep-17 20:54 33.037218 -116.910147 188 1389ft 0kts
12-Sep-17 20:55 33.037218 -116.910147 188 1389ft 0kts
12-Sep-17 20:56 33.037218 -116.910147 188 1389ft 0kts
12-Sep-17 20:57 33.037218 -116.910147 188 1389ft 0kts
12-Sep-17 20:58 33.037218 -116.910147 188 1389ft 0kts
12-Sep-17 20:59 33.037224 -116.910146 188 1388ft 0kts
12-Sep-17 21:00 33.037224 -116.910146 188 1388ft 0kts
12-Sep-17 21:01 33.037224 -116.910146 188 1388ft 0kts
12-Sep-17 21:02 33.037224 -116.910146 188 1388ft 0kts
12-Sep-17 21:03 33.037224 -116.910146 188 1388ft 0kts
12-Sep-17 21:04 33.037224 -116.910146 188 1388ft 0kts
12-Sep-17 21:05 33.037224 -116.910146 188 1388ft 0kts
12-Sep-17 21:06 33.037123 -116.910098 150 1389ft 4kts
12-Sep-17 21:07 33.037571 -116.907337 2 1384ft 9kts
12-Sep-17 21:08 33.039359 -116.920874 271 1898ft 80kts
12-Sep-17 21:09 33.042362 -116.948144 279 2513ft 136kts
12-Sep-17 21:10 33.046728 -116.977213 279 3182ft 142kts
12-Sep-17 21:11 33.051689 -117.009644 284 3865ft 137kts
12-Sep-17 21:12 33.062857 -117.044115 293 4694ft 131kts
12-Sep-17 21:13 33.083314 -117.076702 345 5029ft 159kts
12-Sep-17 21:14 33.125348 -117.086572 349 5006ft 173kts
12-Sep-17 21:15 33.169636 -117.096235 349 5022ft 176kts
12-Sep-17 21:16 33.204575 -117.123304 284 5004ft 175kts
12-Sep-17 21:17 33.212334 -117.178267 278 5028ft 176kts
12-Sep-17 21:18 33.218803 -117.232580 278 4999ft 176kts
12-Sep-17 21:19 33.225424 -117.288485 278 5009ft 176kts
12-Sep-17 21:20 33.231985 -117.344427 277 5000ft 176kts
12-Sep-17 21:21 33.238031 -117.402407 259 4994ft 177kts
12-Sep-17 21:22 33.199001 -117.404473 153 5003ft 176kts
12-Sep-17 21:23 33.154351 -117.381484 160 5017ft 177kts
12-Sep-17 21:24 33.108459 -117.362040 161 5002ft 177kts
12-Sep-17 21:25 33.062178 -117.342579 161 5001ft 177kts
12-Sep-17 21:26 33.017356 -117.323782 161 5018ft 177kts
12-Sep-17 21:27 32.973989 -117.305588 160 5007ft 178kts
12-Sep-17 21:28 32.929238 -117.286847 160 5001ft 178kts
12-Sep-17 21:29 32.883970 -117.267889 160 5003ft 177kts
12-Sep-17 21:30 32.837387 -117.248423 160 4998ft 177kts
12-Sep-17 21:31 32.793190 -117.227142 128 4993ft 177kts
12-Sep-17 21:32 32.781336 -117.173953 102 4996ft 178kts
12-Sep-17 21:33 32.771867 -117.120741 101 4992ft 178kts
12-Sep-17 21:34 32.762523 -117.068259 102 5030ft 179kts
12-Sep-17 21:35 32.753257 -117.016101 102 4999ft 178kts
12-Sep-17 21:36 32.743880 -116.963402 102 5000ft 178kts
12-Sep-17 21:37 32.734568 -116.911000 101 5000ft 178kts
12-Sep-17 21:38 32.719128 -116.865894 159 5005ft 179kts
12-Sep-17 21:39 32.686928 -116.891931 232 4993ft 163kts
12-Sep-17 21:40 32.674372 -116.940578 277 4595ft 176kts
12-Sep-17 21:41 32.684261 -116.987065 285 4063ft 171kts
12-Sep-17 21:42 32.692975 -117.022983 285 3797ft 128kts
12-Sep-17 21:43 32.699868 -117.050979 286 3219ft 139kts
12-Sep-17 21:44 32.706116 -117.076678 286 2809ft 121kts
12-Sep-17 21:45 32.712559 -117.103042 287 2172ft 138kts
12-Sep-17 21:46 32.720921 -117.136815 288 1314ft 128kts
12-Sep-17 21:47 32.729568 -117.174093 284 189ft 111kts
12-Sep-17 21:48 32.734488 -117.193557 287 14ft 23kts
12-Sep-17 21:49 32.733712 -117.194526 115 14ft 17kts
12-Sep-17 21:50 32.732437 -117.189326 105 12ft 19kts
12-Sep-17 21:51 32.731548 -117.185648 104 11ft 8kts
12-Sep-17 21:52 32.733200 -117.183454 107 14ft 13kts
12-Sep-17 21:53 32.732180 -117.177199 82 17ft 18kts
12-Sep-17 21:54 32.732024 -117.176417 208 19ft 0kts

Navigation Log

Ident Type
Flight plan parsing failed, navigation log unavailable